logo
Rechercher aéroport 
image banner adimage banner adimage banner ad
image banner ad

CYAU - South Shore Regional

Situé à Liverpool, Canada

ICAO - CYAU, IATA -

Données fournies par Airmate  

Information générale

Coordonnées: N44°13'50" W64°51'22"
Élévation : 325 feet MSL.
Variation magnétique : -17.5239° East
Voir autres Aéroports à Nova Scotia

Données opérationnelles

Special qualification required
Heure actuelle UTC:
Heure actuelle locale:
Météo à : - ( 0 km )
METAR: CYAH 240802Z AUTO 05004KT 360V080 6SM BR OVC009 03/03 A2953 RMK SLP018
Voir NOTAMs / SUP AIP / TFR affectant cet aéroport [VIEW]
Fréquences de communication: [VIEW]

Pistes:

Identifiant RWYQFULongueur (ft)Largeur (ft)SurfaceLDA (ft)
0753°393375ASPH3933
25233°393375ASPH3933

Coordonnées de l'aéroport

Adresse: Liverpool Canada

Vue satellite de CYAU